Time;durP1;ratioP1;P1;durP2;ratioP2;P2;SDS_P1;SDS_P2;PMS_P1;PMS_P2;Temp;Humidity;BMP_temperature;BMP_pressure;BME280_temperature;BME280_humidity;BME280_pressure;Samples;Min_cycle;Max_cycle;Signal;HPM_P1;HPM_P2
2021/09/26 00:01:18;;;;;;;30.15;11.75;;;;;;;;;;5074981;28;20028;-74
2021/09/26 00:03:43;;;;;;;39.78;12.05;;;;;;;;;;5074867;28;20029;-75
2021/09/26 00:06:09;;;;;;;36.90;11.90;;;;;;;;;;5072891;28;20354;-75
2021/09/26 00:08:34;;;;;;;38.45;12.65;;;;;;;;;;5063410;28;20017;-75
2021/09/26 00:11:05;;;;;;;43.50;14.43;;;;;;;;;;5074407;28;20480;-75
2021/09/26 00:13:30;;;;;;;39.15;13.02;;;;;;;;;;5060046;28;20028;-74
2021/09/26 00:15:56;;;;;;;48.20;15.07;;;;;;;;;;5054573;28;20369;-75
2021/09/26 00:18:21;;;;;;;55.33;15.27;;;;;;;;;;5054807;28;20482;-75
2021/09/26 00:20:46;;;;;;;54.03;17.13;;;;;;;;;;5054519;28;20517;-75
2021/09/26 00:23:11;;;;;;;52.17;17.05;;;;;;;;;;5054169;28;20033;-75
2021/09/26 00:25:37;;;;;;;57.92;15.80;;;;;;;;;;5054421;28;20028;-75
2021/09/26 00:28:02;;;;;;;61.97;16.20;;;;;;;;;;5054360;28;20025;-75
2021/09/26 00:30:27;;;;;;;65.97;17.67;;;;;;;;;;5062950;28;20043;-76
2021/09/26 00:32:52;;;;;;;70.70;18.42;;;;;;;;;;5068261;28;20052;-75
2021/09/26 00:35:19;;;;;;;71.57;18.90;;;;;;;;;;5064791;28;20091;-74
2021/09/26 00:37:44;;;;;;;81.45;19.65;;;;;;;;;;5067001;28;20029;-75
2021/09/26 00:40:10;;;;;;;85.55;21.10;;;;;;;;;;5057431;28;20059;-75
2021/09/26 00:42:35;;;;;;;75.90;19.45;;;;;;;;;;5070440;28;20017;-74
2021/09/26 00:45:03;;;;;;;73.85;19.92;;;;;;;;;;5060884;28;20074;-74
2021/09/26 00:47:28;;;;;;;74.45;19.65;;;;;;;;;;5063069;28;20543;-75
2021/09/26 00:49:53;;;;;;;75.57;20.95;;;;;;;;;;5067993;28;20012;-74
2021/09/26 00:52:19;;;;;;;81.18;20.08;;;;;;;;;;5057193;28;20483;-74
2021/09/26 00:54:45;;;;;;;72.13;21.60;;;;;;;;;;5068800;28;20037;-74
2021/09/26 00:57:10;;;;;;;62.03;20.02;;;;;;;;;;5061878;28;20029;-74
2021/09/26 00:59:35;;;;;;;63.97;20.17;;;;;;;;;;5061742;28;20477;-75
2021/09/26 01:02:01;;;;;;;61.17;20.77;;;;;;;;;;5068728;28;20039;-75
2021/09/26 01:04:26;;;;;;;67.10;20.30;;;;;;;;;;5056041;28;20048;-74
2021/09/26 01:07:00;;;;;;;68.75;21.45;;;;;;;;;;5068048;28;20032;-74
2021/09/26 01:09:34;;;;;;;75.25;20.67;;;;;;;;;;5063855;28;20122;-76
2021/09/26 01:12:07;;;;;;;69.03;21.15;;;;;;;;;;5058529;28;20033;-75
2021/09/26 01:14:53;;;;;;;69.88;21.17;;;;;;;;;;5069969;28;20029;-76
2021/09/26 01:17:19;;;;;;;85.40;22.60;;;;;;;;;;5062842;28;20024;-75
2021/09/26 01:19:44;;;;;;;76.75;22.80;;;;;;;;;;5059188;28;20040;-75
2021/09/26 01:22:11;;;;;;;83.93;21.83;;;;;;;;;;5068005;28;20025;-74
2021/09/26 01:24:55;;;;;;;82.15;22.38;;;;;;;;;;5040443;28;20062;-74
2021/09/26 01:27:27;;;;;;;93.15;23.58;;;;;;;;;;5063787;28;20025;-74
2021/09/26 01:29:53;;;;;;;83.00;23.00;;;;;;;;;;5066900;28;20089;-75
2021/09/26 01:32:19;;;;;;;93.72;23.10;;;;;;;;;;5056204;28;20033;-74
2021/09/26 01:34:49;;;;;;;83.78;23.27;;;;;;;;;;5068663;28;20021;-74
2021/09/26 01:37:20;;;;;;;101.50;22.45;;;;;;;;;;5061893;28;20056;-74
2021/09/26 01:39:52;;;;;;;116.90;25.10;;;;;;;;;;5059162;28;20056;-74
2021/09/26 01:42:29;;;;;;;121.85;24.35;;;;;;;;;;5069964;28;20104;-74
2021/09/26 01:44:57;;;;;;;94.25;23.50;;;;;;;;;;5059342;28;20036;-74
2021/09/26 01:47:34;;;;;;;134.32;24.65;;;;;;;;;;5063431;28;20025;-74
2021/09/26 01:50:00;;;;;;;122.07;23.77;;;;;;;;;;5068013;28;20036;-74
2021/09/26 01:52:27;;;;;;;108.25;25.73;;;;;;;;;;5056447;28;20108;-74
2021/09/26 01:54:52;;;;;;;101.97;23.45;;;;;;;;;;5066931;28;20485;-75
2021/09/26 01:57:20;;;;;;;123.22;24.88;;;;;;;;;;5062132;28;20023;-74
2021/09/26 01:59:49;;;;;;;112.10;23.77;;;;;;;;;;5059755;28;20027;-75
2021/09/26 02:02:16;;;;;;;138.10;25.67;;;;;;;;;;5069548;28;20076;-76
2021/09/26 02:04:41;;;;;;;154.55;26.42;;;;;;;;;;5057125;28;20023;-75
2021/09/26 02:07:07;;;;;;;149.65;26.90;;;;;;;;;;5065208;28;20037;-75
2021/09/26 02:09:33;;;;;;;113.38;25.55;;;;;;;;;;5064189;28;20137;-76
2021/09/26 02:11:58;;;;;;;136.05;24.60;;;;;;;;;;5057786;28;20385;-76
2021/09/26 02:14:24;;;;;;;115.25;26.13;;;;;;;;;;5069293;28;20043;-75
2021/09/26 02:16:50;;;;;;;160.38;28.40;;;;;;;;;;5060297;28;20434;-75
2021/09/26 02:19:17;;;;;;;144.88;26.23;;;;;;;;;;5067606;28;20347;-75
2021/09/26 02:21:43;;;;;;;152.52;27.42;;;;;;;;;;5069296;28;20032;-75
2021/09/26 02:24:08;;;;;;;135.27;27.85;;;;;;;;;;5060514;28;20033;-75
2021/09/26 02:26:35;;;;;;;140.60;25.83;;;;;;;;;;5073043;28;20031;-74
2021/09/26 02:29:00;;;;;;;156.38;28.70;;;;;;;;;;5063593;28;20103;-75
2021/09/26 02:31:25;;;;;;;163.27;27.30;;;;;;;;;;5065967;28;20116;-74
2021/09/26 02:33:51;;;;;;;156.68;27.83;;;;;;;;;;5070242;28;20051;-74
2021/09/26 02:36:16;;;;;;;185.65;30.13;;;;;;;;;;5058504;28;20123;-74
2021/09/26 02:38:42;;;;;;;204.65;30.48;;;;;;;;;;5072183;28;20492;-74
2021/09/26 02:41:28;;;;;;;229.60;31.40;;;;;;;;;;5064114;28;20389;-74
2021/09/26 02:43:56;;;;;;;196.27;29.95;;;;;;;;;;5061529;28;20090;-75
2021/09/26 02:46:29;;;;;;;217.43;30.95;;;;;;;;;;5072771;28;20111;-74
2021/09/26 02:48:55;;;;;;;183.50;32.35;;;;;;;;;;5062285;28;20040;-74
2021/09/26 02:51:20;;;;;;;223.13;30.38;;;;;;;;;;5066577;28;20029;-74
2021/09/26 02:53:46;;;;;;;179.85;28.88;;;;;;;;;;5069141;28;20028;-74
2021/09/26 02:56:12;;;;;;;172.02;27.77;;;;;;;;;;5059428;28;20434;-76
2021/09/26 02:58:38;;;;;;;159.52;25.27;;;;;;;;;;5072353;28;20096;-74
2021/09/26 03:01:03;;;;;;;169.48;27.65;;;;;;;;;;5063231;28;20040;-74
2021/09/26 03:03:28;;;;;;;172.50;26.33;;;;;;;;;;5065354;28;20029;-74
2021/09/26 03:05:54;;;;;;;190.88;28.33;;;;;;;;;;5070084;28;20536;-76
2021/09/26 03:08:20;;;;;;;161.50;25.58;;;;;;;;;;5059273;28;20028;-74
2021/09/26 03:10:47;;;;;;;158.20;26.75;;;;;;;;;;5071077;28;20025;-74
2021/09/26 03:13:12;;;;;;;171.70;27.55;;;;;;;;;;5064238;28;20036;-74
2021/09/26 03:15:37;;;;;;;175.32;26.70;;;;;;;;;;5063709;28;20036;-74
2021/09/26 03:18:03;;;;;;;180.73;27.25;;;;;;;;;;5071159;28;20439;-74
2021/09/26 03:20:28;;;;;;;175.82;33.13;;;;;;;;;;5058930;28;20039;-74
2021/09/26 03:22:54;;;;;;;180.57;33.72;;;;;;;;;;5069787;28;20013;-76
2021/09/26 03:25:19;;;;;;;236.75;32.28;;;;;;;;;;5065301;28;20115;-75
2021/09/26 03:27:45;;;;;;;195.93;31.83;;;;;;;;;;5061877;28;20064;-74
2021/09/26 03:30:11;;;;;;;177.43;32.35;;;;;;;;;;5071608;28;20020;-74
2021/09/26 03:32:36;;;;;;;183.00;31.85;;;;;;;;;;5058505;28;20040;-75
2021/09/26 03:35:02;;;;;;;148.77;31.33;;;;;;;;;;5068365;28;20094;-74
2021/09/26 03:37:28;;;;;;;239.68;33.60;;;;;;;;;;5065854;28;20024;-74
2021/09/26 03:39:53;;;;;;;207.55;32.97;;;;;;;;;;5060167;28;20036;-74
2021/09/26 03:42:18;;;;;;;201.57;33.92;;;;;;;;;;5071694;28;20044;-75
2021/09/26 03:44:44;;;;;;;177.10;32.53;;;;;;;;;;5059431;28;20031;-74
2021/09/26 03:47:09;;;;;;;165.88;32.03;;;;;;;;;;5067149;28;20484;-74
2021/09/26 03:49:34;;;;;;;222.10;33.25;;;;;;;;;;5066681;28;20037;-74
2021/09/26 03:52:00;;;;;;;189.23;32.47;;;;;;;;;;5059928;28;20430;-74
2021/09/26 03:54:25;;;;;;;196.48;32.63;;;;;;;;;;5071515;28;20036;-74
2021/09/26 03:56:51;;;;;;;208.10;32.65;;;;;;;;;;5060316;28;20059;-74
2021/09/26 03:59:16;;;;;;;188.23;31.50;;;;;;;;;;5065980;28;20066;-74
2021/09/26 04:01:42;;;;;;;212.85;34.22;;;;;;;;;;5067395;28;20113;-74
2021/09/26 04:04:08;;;;;;;180.60;31.75;;;;;;;;;;5059042;28;20029;-75
2021/09/26 04:06:33;;;;;;;178.77;34.17;;;;;;;;;;5071314;28;20017;-74
2021/09/26 04:08:58;;;;;;;204.00;33.05;;;;;;;;;;5061181;28;20021;-74
2021/09/26 04:11:23;;;;;;;198.40;31.30;;;;;;;;;;5063679;28;20037;-74
2021/09/26 04:13:49;;;;;;;202.27;31.52;;;;;;;;;;5068049;28;20020;-74
2021/09/26 04:16:14;;;;;;;216.13;32.05;;;;;;;;;;5057818;28;20064;-74
2021/09/26 04:18:39;;;;;;;197.15;32.05;;;;;;;;;;5070565;28;20420;-74
2021/09/26 04:21:05;;;;;;;252.68;34.60;;;;;;;;;;5061547;28;20087;-74
2021/09/26 04:23:31;;;;;;;192.43;31.38;;;;;;;;;;5063439;28;20028;-74
2021/09/26 04:25:56;;;;;;;181.25;31.23;;;;;;;;;;5068547;28;20028;-75
2021/09/26 04:28:21;;;;;;;164.55;31.85;;;;;;;;;;5057952;28;20024;-74
2021/09/26 04:30:46;;;;;;;226.00;34.53;;;;;;;;;;5069304;28;20032;-74
2021/09/26 04:33:12;;;;;;;233.52;34.58;;;;;;;;;;5062289;28;20408;-74
2021/09/26 04:35:37;;;;;;;179.10;33.90;;;;;;;;;;5062289;28;20037;-74
2021/09/26 04:38:02;;;;;;;217.85;35.95;;;;;;;;;;5069466;28;20483;-74
2021/09/26 04:40:28;;;;;;;211.48;35.05;;;;;;;;;;5056394;28;20115;-74
2021/09/26 04:42:53;;;;;;;254.95;35.80;;;;;;;;;;5068301;28;20021;-74
2021/09/26 04:45:18;;;;;;;218.43;35.25;;;;;;;;;;5063196;28;20040;-75
2021/09/26 04:47:44;;;;;;;185.85;33.88;;;;;;;;;;5061191;28;20025;-74
2021/09/26 04:50:09;;;;;;;277.10;35.78;;;;;;;;;;5070077;28;20031;-74
2021/09/26 04:52:35;;;;;;;229.13;34.15;;;;;;;;;;5056020;28;20046;-74
2021/09/26 04:55:00;;;;;;;217.25;36.00;;;;;;;;;;5066942;28;20076;-74
2021/09/26 04:57:25;;;;;;;215.43;35.13;;;;;;;;;;5063994;28;20104;-74
2021/09/26 04:59:50;;;;;;;221.38;36.45;;;;;;;;;;5060028;28;20457;-74
2021/09/26 05:02:16;;;;;;;214.20;35.60;;;;;;;;;;5070241;28;20048;-74
2021/09/26 05:04:41;;;;;;;222.48;35.80;;;;;;;;;;5057483;28;20034;-74
2021/09/26 05:07:07;;;;;;;268.75;37.17;;;;;;;;;;5065705;28;20036;-74
2021/09/26 05:09:32;;;;;;;181.73;34.00;;;;;;;;;;5064793;28;20107;-74
2021/09/26 05:11:57;;;;;;;227.23;36.38;;;;;;;;;;5058889;28;20067;-74
2021/09/26 05:14:22;;;;;;;250.85;36.97;;;;;;;;;;5070281;28;20452;-74
2021/09/26 05:16:48;;;;;;;201.10;34.78;;;;;;;;;;5058468;28;20028;-74
2021/09/26 05:19:14;;;;;;;219.95;37.15;;;;;;;;;;5064833;28;20020;-74
2021/09/26 05:21:39;;;;;;;279.45;39.30;;;;;;;;;;5065558;28;20388;-74
2021/09/26 05:24:04;;;;;;;294.20;39.00;;;;;;;;;;5057836;28;20428;-74
2021/09/26 05:26:30;;;;;;;224.25;35.92;;;;;;;;;;5069873;28;20042;-74
2021/09/26 05:28:55;;;;;;;193.27;37.13;;;;;;;;;;5059440;28;20039;-74
2021/09/26 05:31:20;;;;;;;223.15;38.60;;;;;;;;;;5063744;28;20037;-74
2021/09/26 05:33:45;;;;;;;226.65;37.85;;;;;;;;;;5065963;28;20044;-74
2021/09/26 05:36:11;;;;;;;216.18;41.25;;;;;;;;;;5056576;28;20037;-74
2021/09/26 05:38:36;;;;;;;207.43;39.90;;;;;;;;;;5040171;28;20074;-77
2021/09/26 05:41:01;;;;;;;268.30;41.95;;;;;;;;;;5065995;28;20100;-76
2021/09/26 05:43:26;;;;;;;208.98;41.47;;;;;;;;;;5063563;28;20024;-74
2021/09/26 05:45:52;;;;;;;291.25;42.75;;;;;;;;;;5059531;28;20386;-74
2021/09/26 05:48:17;;;;;;;175.68;35.45;;;;;;;;;;5069547;28;20449;-73
2021/09/26 05:50:43;;;;;;;202.90;39.17;;;;;;;;;;5057894;28;20025;-73
2021/09/26 05:53:08;;;;;;;220.98;38.35;;;;;;;;;;5069440;28;20513;-74
2021/09/26 05:55:33;;;;;;;156.52;35.58;;;;;;;;;;5068543;28;20381;-73
2021/09/26 05:57:58;;;;;;;230.02;39.35;;;;;;;;;;5062291;28;20107;-73
2021/09/26 06:00:25;;;;;;;216.02;39.55;;;;;;;;;;5073653;28;20461;-73
2021/09/26 06:02:51;;;;;;;241.02;42.60;;;;;;;;;;5062503;28;20020;-73
2021/09/26 06:05:16;;;;;;;207.15;41.85;;;;;;;;;;5077132;28;20498;-74
2021/09/26 06:07:41;;;;;;;178.30;39.63;;;;;;;;;;5064480;28;20462;-74
2021/09/26 06:10:07;;;;;;;174.68;40.65;;;;;;;;;;5072962;28;20116;-73
2021/09/26 06:12:32;;;;;;;170.23;37.33;;;;;;;;;;5060207;28;20052;-73
2021/09/26 06:14:58;;;;;;;192.48;40.65;;;;;;;;;;5070424;28;20090;-73
2021/09/26 06:17:23;;;;;;;169.07;39.75;;;;;;;;;;5066712;28;20369;-76
2021/09/26 06:19:50;;;;;;;186.65;40.10;;;;;;;;;;5063374;28;20021;-76
2021/09/26 06:22:15;;;;;;;187.55;41.20;;;;;;;;;;5073241;28;20419;-77
2021/09/26 06:24:41;;;;;;;194.65;40.28;;;;;;;;;;5060817;28;20024;-76
2021/09/26 06:27:06;;;;;;;190.85;39.25;;;;;;;;;;5069278;28;20108;-76
2021/09/26 06:29:31;;;;;;;182.48;41.67;;;;;;;;;;5067673;28;20041;-76
2021/09/26 06:31:56;;;;;;;174.68;40.72;;;;;;;;;;5061747;28;20025;-74
2021/09/26 06:34:22;;;;;;;166.55;39.83;;;;;;;;;;5072437;28;20040;-76
2021/09/26 06:36:47;;;;;;;175.65;39.92;;;;;;;;;;5061065;28;20062;-76
2021/09/26 06:39:12;;;;;;;160.07;40.05;;;;;;;;;;5067905;28;20075;-75
2021/09/26 06:41:38;;;;;;;155.63;39.83;;;;;;;;;;5068339;28;20461;-75
2021/09/26 06:44:04;;;;;;;154.43;39.88;;;;;;;;;;5060842;28;20040;-75
2021/09/26 06:46:29;;;;;;;168.88;40.50;;;;;;;;;;5072152;28;20020;-76
2021/09/26 06:48:54;;;;;;;147.90;37.40;;;;;;;;;;5060203;28;20400;-76
2021/09/26 06:51:19;;;;;;;151.35;38.38;;;;;;;;;;5065539;28;20048;-76
2021/09/26 06:53:45;;;;;;;168.93;35.65;;;;;;;;;;5068366;28;20028;-76
2021/09/26 06:56:10;;;;;;;132.15;35.03;;;;;;;;;;5059288;28;20087;-76
2021/09/26 06:58:35;;;;;;;145.70;36.60;;;;;;;;;;5072706;28;20025;-75
2021/09/26 07:01:01;;;;;;;133.05;36.58;;;;;;;;;;5062799;28;20032;-76
2021/09/26 07:03:26;;;;;;;117.28;34.85;;;;;;;;;;5064445;28;20051;-76
2021/09/26 07:05:51;;;;;;;117.07;36.00;;;;;;;;;;5069667;28;20540;-76
2021/09/26 07:08:16;;;;;;;113.07;32.42;;;;;;;;;;5059160;28;20359;-76
2021/09/26 07:10:42;;;;;;;99.18;32.60;;;;;;;;;;5071540;28;20035;-75
2021/09/26 07:13:07;;;;;;;91.95;29.83;;;;;;;;;;5063780;28;20043;-75
2021/09/26 07:15:34;;;;;;;116.63;33.80;;;;;;;;;;5064316;28;20033;-76
2021/09/26 07:17:59;;;;;;;100.32;32.83;;;;;;;;;;5070948;28;20361;-75
2021/09/26 07:20:28;;;;;;;90.07;30.80;;;;;;;;;;5058634;28;20035;-74
2021/09/26 07:22:57;;;;;;;86.57;30.85;;;;;;;;;;5070104;28;20453;-74
2021/09/26 07:25:23;;;;;;;85.55;29.75;;;;;;;;;;5065510;28;20112;-74
2021/09/26 07:27:48;;;;;;;83.53;29.55;;;;;;;;;;5062205;28;20064;-74
2021/09/26 07:30:14;;;;;;;72.60;27.15;;;;;;;;;;5071877;28;20470;-75
2021/09/26 07:32:39;;;;;;;79.18;27.45;;;;;;;;;;5059018;28;20072;-74
2021/09/26 07:35:04;;;;;;;68.88;25.00;;;;;;;;;;5068008;28;20041;-75
2021/09/26 07:37:30;;;;;;;65.07;25.45;;;;;;;;;;5066099;28;20028;-74
2021/09/26 07:39:55;;;;;;;57.50;23.38;;;;;;;;;;5060995;28;20500;-75
2021/09/26 07:42:20;;;;;;;54.42;22.13;;;;;;;;;;5071704;28;20032;-74
2021/09/26 07:44:46;;;;;;;48.78;21.48;;;;;;;;;;5060156;28;20878;-75
2021/09/26 07:47:11;;;;;;;51.55;24.00;;;;;;;;;;5067009;28;20112;-74
2021/09/26 07:49:36;;;;;;;50.63;23.73;;;;;;;;;;5066787;28;20446;-74
2021/09/26 07:52:02;;;;;;;45.70;21.13;;;;;;;;;;5059785;28;20016;-74
2021/09/26 07:54:27;;;;;;;45.38;21.55;;;;;;;;;;5059485;28;20041;-76
2021/09/26 07:56:52;;;;;;;46.40;21.52;;;;;;;;;;5053379;28;20385;-75
2021/09/26 07:59:19;;;;;;;43.85;21.17;;;;;;;;;;5056138;28;20013;-77
2021/09/26 08:01:45;;;;;;;45.30;21.17;;;;;;;;;;5057688;28;20032;-74
2021/09/26 08:04:10;;;;;;;36.20;18.58;;;;;;;;;;5057565;28;20378;-75
2021/09/26 08:06:36;;;;;;;44.67;20.50;;;;;;;;;;5060382;28;20515;-75
2021/09/26 08:09:01;;;;;;;39.75;19.55;;;;;;;;;;5057412;28;20017;-75
2021/09/26 08:11:26;;;;;;;44.30;19.63;;;;;;;;;;5057847;28;20040;-74
2021/09/26 08:13:52;;;;;;;39.72;19.00;;;;;;;;;;5057202;28;20021;-75
2021/09/26 08:16:17;;;;;;;34.78;17.98;;;;;;;;;;5054307;28;20027;-74
2021/09/26 08:18:42;;;;;;;37.20;17.67;;;;;;;;;;5056793;28;20025;-75
2021/09/26 08:21:07;;;;;;;36.60;18.83;;;;;;;;;;5071427;28;20403;-75
2021/09/26 08:23:33;;;;;;;37.05;17.92;;;;;;;;;;5071261;28;20025;-76
2021/09/26 08:25:59;;;;;;;35.35;17.67;;;;;;;;;;5071272;28;20043;-75
2021/09/26 08:28:24;;;;;;;30.10;15.57;;;;;;;;;;5068878;28;20369;-75
2021/09/26 08:30:50;;;;;;;26.52;14.88;;;;;;;;;;5069751;28;20078;-75
2021/09/26 08:33:15;;;;;;;24.27;15.00;;;;;;;;;;5068335;28;20040;-75
2021/09/26 08:35:40;;;;;;;25.35;15.40;;;;;;;;;;5060947;28;20064;-75
2021/09/26 08:38:06;;;;;;;22.85;14.10;;;;;;;;;;5057687;28;20370;-76
2021/09/26 08:40:31;;;;;;;27.33;14.50;;;;;;;;;;5067995;28;20028;-76
2021/09/26 08:42:57;;;;;;;23.77;13.65;;;;;;;;;;5057186;28;20024;-77
2021/09/26 08:45:22;;;;;;;22.10;13.45;;;;;;;;;;5056835;28;20052;-76
2021/09/26 08:47:48;;;;;;;21.65;13.35;;;;;;;;;;5055561;28;20100;-77
2021/09/26 08:50:15;;;;;;;21.27;12.70;;;;;;;;;;5052360;28;20036;-75
2021/09/26 08:52:41;;;;;;;17.73;10.90;;;;;;;;;;5053915;28;20033;-75
2021/09/26 08:55:07;;;;;;;16.17;9.68;;;;;;;;;;5051488;28;20041;-75
2021/09/26 08:57:32;;;;;;;21.50;10.82;;;;;;;;;;5061757;28;20029;-76
2021/09/26 08:59:57;;;;;;;17.25;10.82;;;;;;;;;;5056963;28;20419;-75
2021/09/26 09:02:22;;;;;;;14.02;9.40;;;;;;;;;;5051950;28;20037;-75
2021/09/26 09:04:48;;;;;;;17.63;9.57;;;;;;;;;;5041062;28;20029;-76
2021/09/26 09:07:13;;;;;;;15.68;10.25;;;;;;;;;;5051918;28;20029;-78
2021/09/26 09:09:57;;;;;;;14.60;9.75;;;;;;;;;;5052977;28;20052;-75
2021/09/26 09:12:24;;;;;;;15.95;9.80;;;;;;;;;;5052071;28;20446;-76
2021/09/26 09:14:49;;;;;;;15.82;8.88;;;;;;;;;;5052153;28;20124;-75
2021/09/26 09:17:33;;;;;;;13.45;9.38;;;;;;;;;;5053086;28;20049;-76
2021/09/26 09:20:10;;;;;;;14.82;10.10;;;;;;;;;;5051951;28;20106;-76
2021/09/26 09:22:36;;;;;;;14.85;8.25;;;;;;;;;;5052562;28;20056;-77
2021/09/26 09:25:01;;;;;;;18.40;9.95;;;;;;;;;;5051779;28;20474;-76
2021/09/26 09:27:26;;;;;;;14.88;9.52;;;;;;;;;;5052708;28;20036;-76
2021/09/26 09:29:52;;;;;;;15.30;11.07;;;;;;;;;;5052439;28;20029;-76
2021/09/26 09:32:18;;;;;;;17.92;11.25;;;;;;;;;;5051703;28;20031;-78
2021/09/26 09:34:44;;;;;;;13.63;9.40;;;;;;;;;;5051997;28;20029;-76
2021/09/26 09:37:09;;;;;;;14.10;9.43;;;;;;;;;;5051422;28;20028;-78
2021/09/26 09:39:34;;;;;;;14.85;9.35;;;;;;;;;;5051840;28;20021;-76
2021/09/26 09:42:03;;;;;;;16.35;9.30;;;;;;;;;;5051384;28;20057;-77
2021/09/26 09:44:35;;;;;;;15.32;8.93;;;;;;;;;;5051840;28;20021;-77
2021/09/26 09:47:00;;;;;;;15.82;8.40;;;;;;;;;;5050714;28;20029;-78
2021/09/26 09:49:26;;;;;;;11.45;8.25;;;;;;;;;;5051213;28;20032;-76
2021/09/26 09:51:55;;;;;;;11.57;8.52;;;;;;;;;;5051410;28;20047;-77
2021/09/26 09:54:50;;;;;;;9.57;6.20;;;;;;;;;;5051398;28;20072;-76
2021/09/26 09:57:16;;;;;;;10.60;6.93;;;;;;;;;;5046047;28;20049;-77
2021/09/26 09:59:44;;;;;;;8.75;6.15;;;;;;;;;;5044367;28;20029;-77
2021/09/26 10:02:10;;;;;;;8.13;5.75;;;;;;;;;;5050699;28;20025;-77
2021/09/26 10:04:39;;;;;;;9.43;5.57;;;;;;;;;;5051239;28;20730;-78
2021/09/26 10:07:16;;;;;;;7.47;5.38;;;;;;;;;;5052497;28;20039;-77
2021/09/26 10:09:41;;;;;;;8.43;4.90;;;;;;;;;;5047411;28;20029;-78
2021/09/26 10:12:09;;;;;;;10.48;5.50;;;;;;;;;;5051823;28;20066;-78
2021/09/26 10:14:35;;;;;;;8.80;5.80;;;;;;;;;;5050860;28;20056;-77
2021/09/26 10:17:02;;;;;;;8.10;4.75;;;;;;;;;;5052824;28;20473;-76
2021/09/26 10:19:28;;;;;;;8.23;4.90;;;;;;;;;;5051465;28;20108;-77
2021/09/26 10:21:56;;;;;;;7.18;4.10;;;;;;;;;;5051204;28;20420;-77
2021/09/26 10:24:22;;;;;;;10.73;4.75;;;;;;;;;;5050749;28;20028;-77
2021/09/26 10:26:48;;;;;;;8.57;4.88;;;;;;;;;;5051593;28;20366;-76
2021/09/26 10:29:15;;;;;;;9.32;4.75;;;;;;;;;;5051015;28;20151;-76
2021/09/26 10:31:40;;;;;;;11.18;5.07;;;;;;;;;;5051861;28;20353;-76
2021/09/26 10:34:07;;;;;;;6.97;4.68;;;;;;;;;;5051357;28;20052;-76
2021/09/26 10:36:34;;;;;;;8.77;5.15;;;;;;;;;;5052735;28;20029;-75
2021/09/26 10:39:00;;;;;;;11.02;4.55;;;;;;;;;;5055428;28;20044;-76
2021/09/26 10:41:25;;;;;;;6.32;4.03;;;;;;;;;;5056243;28;20032;-76
2021/09/26 10:43:51;;;;;;;7.28;3.40;;;;;;;;;;5055330;28;20037;-78
2021/09/26 10:46:23;;;;;;;8.30;3.47;;;;;;;;;;5055557;28;20346;-77
2021/09/26 10:49:07;;;;;;;8.10;3.55;;;;;;;;;;5043915;28;20060;-75
2021/09/26 10:51:41;;;;;;;7.32;3.30;;;;;;;;;;5050767;28;20029;-80
2021/09/26 10:54:24;;;;;;;5.75;3.55;;;;;;;;;;5053842;28;20032;-76
2021/09/26 10:56:51;;;;;;;5.80;3.33;;;;;;;;;;5042444;28;20135;-75
2021/09/26 10:59:16;;;;;;;6.63;3.65;;;;;;;;;;5044965;28;20040;-75
2021/09/26 11:01:41;;;;;;;4.93;3.33;;;;;;;;;;5054132;28;20389;-76
2021/09/26 11:04:13;;;;;;;5.30;3.30;;;;;;;;;;5053948;28;20741;-76
2021/09/26 11:06:39;;;;;;;7.15;4.05;;;;;;;;;;5049688;28;20395;-75
2021/09/26 11:09:06;;;;;;;6.50;4.05;;;;;;;;;;5055002;28;20033;-76
2021/09/26 11:11:36;;;;;;;6.80;3.05;;;;;;;;;;5054809;28;20032;-77
2021/09/26 11:14:01;;;;;;;5.70;3.80;;;;;;;;;;5055241;28;20029;-75
2021/09/26 11:16:46;;;;;;;9.15;4.10;;;;;;;;;;5055205;28;20043;-75
2021/09/26 11:19:13;;;;;;;11.85;5.75;;;;;;;;;;5050689;28;20025;-75
2021/09/26 11:21:38;;;;;;;5.38;3.70;;;;;;;;;;5054325;28;20104;-76
2021/09/26 11:24:14;;;;;;;8.02;3.45;;;;;;;;;;5049764;28;20096;-77
2021/09/26 11:26:57;;;;;;;6.57;4.45;;;;;;;;;;5054021;28;20082;-77
2021/09/26 11:29:23;;;;;;;5.47;3.50;;;;;;;;;;5047264;28;20151;-79
2021/09/26 11:31:49;;;;;;;5.35;3.75;;;;;;;;;;5047576;28;20791;-77
2021/09/26 11:34:33;;;;;;;6.72;4.45;;;;;;;;;;5043693;28;20102;-75
2021/09/26 11:36:59;;;;;;;14.15;4.60;;;;;;;;;;5051158;28;20119;-75
2021/09/26 11:39:25;;;;;;;6.45;4.15;;;;;;;;;;5050371;28;20485;-76
2021/09/26 11:41:50;;;;;;;7.05;3.65;;;;;;;;;;5048855;28;20028;-75
2021/09/26 11:44:16;;;;;;;9.18;5.45;;;;;;;;;;5050658;28;20048;-76
2021/09/26 11:46:45;;;;;;;7.93;4.57;;;;;;;;;;5051775;28;20033;-75
2021/09/26 11:49:11;;;;;;;7.45;4.18;;;;;;;;;;5049324;28;20067;-75
2021/09/26 11:51:36;;;;;;;7.60;4.53;;;;;;;;;;5050395;28;20029;-76
2021/09/26 11:54:04;;;;;;;8.20;4.53;;;;;;;;;;5051868;28;20488;-76
2021/09/26 11:56:29;;;;;;;9.18;4.90;;;;;;;;;;5051013;28;20146;-76
2021/09/26 11:58:56;;;;;;;11.00;4.82;;;;;;;;;;5052748;28;20462;-75
2021/09/26 12:01:30;;;;;;;6.95;4.13;;;;;;;;;;5053039;28;20025;-77
2021/09/26 12:04:02;;;;;;;8.07;4.28;;;;;;;;;;5051802;28;20029;-75
2021/09/26 12:06:28;;;;;;;6.05;3.20;;;;;;;;;;5049623;28;20412;-76
2021/09/26 12:08:53;;;;;;;4.65;2.72;;;;;;;;;;5051816;28;20029;-75
2021/09/26 12:11:20;;;;;;;5.68;2.47;;;;;;;;;;5050895;28;20060;-77
2021/09/26 12:13:47;;;;;;;7.80;2.30;;;;;;;;;;5054716;28;20036;-75
2021/09/26 12:16:12;;;;;;;5.72;2.20;;;;;;;;;;5051380;28;20037;-75
2021/09/26 12:18:37;;;;;;;9.13;2.40;;;;;;;;;;5051308;28;20488;-75
2021/09/26 12:21:04;;;;;;;8.60;2.15;;;;;;;;;;5051122;28;20040;-76
2021/09/26 12:23:41;;;;;;;3.45;2.10;;;;;;;;;;5051389;28;20062;-76
2021/09/26 12:26:06;;;;;;;4.25;2.53;;;;;;;;;;5052031;28;20043;-75
2021/09/26 12:28:33;;;;;;;6.68;2.75;;;;;;;;;;5051796;28;20116;-75
2021/09/26 12:30:59;;;;;;;5.32;3.20;;;;;;;;;;5050333;28;20133;-76
2021/09/26 12:33:27;;;;;;;4.45;2.42;;;;;;;;;;5050475;28;20041;-76
2021/09/26 12:35:54;;;;;;;7.63;2.88;;;;;;;;;;5051154;28;20063;-76
2021/09/26 12:38:24;;;;;;;7.43;2.85;;;;;;;;;;5050784;28;20465;-78
2021/09/26 12:41:06;;;;;;;6.80;2.70;;;;;;;;;;5050620;28;20032;-74
2021/09/26 12:43:33;;;;;;;4.97;3.03;;;;;;;;;;5050496;28;20067;-75
2021/09/26 12:46:01;;;;;;;6.35;3.25;;;;;;;;;;5051256;28;20423;-74
2021/09/26 12:48:27;;;;;;;6.45;3.35;;;;;;;;;;5050514;28;20102;-76
2021/09/26 12:50:54;;;;;;;5.60;3.50;;;;;;;;;;5050646;28;20060;-75
2021/09/26 12:53:22;;;;;;;7.85;3.83;;;;;;;;;;5050634;28;20029;-79
2021/09/26 12:55:48;;;;;;;6.25;3.60;;;;;;;;;;5050848;28;20041;-75
2021/09/26 12:58:21;;;;;;;6.18;3.60;;;;;;;;;;5050952;28;20028;-74
2021/09/26 13:00:48;;;;;;;6.68;3.40;;;;;;;;;;5049968;28;20068;-76
2021/09/26 13:03:18;;;;;;;6.05;4.07;;;;;;;;;;5047728;28;20397;-75
2021/09/26 13:06:04;;;;;;;8.90;3.88;;;;;;;;;;5050123;28;20032;-75
2021/09/26 13:08:29;;;;;;;6.30;3.20;;;;;;;;;;5050934;28;20053;-76
2021/09/26 13:11:00;;;;;;;5.40;3.53;;;;;;;;;;5050995;28;20110;-75
2021/09/26 13:13:30;;;;;;;4.60;2.70;;;;;;;;;;5051083;28;20021;-75
2021/09/26 13:15:55;;;;;;;4.30;2.60;;;;;;;;;;5050650;28;20036;-75
2021/09/26 13:18:30;;;;;;;7.60;3.08;;;;;;;;;;5050783;28;20040;-75
2021/09/26 13:21:08;;;;;;;3.22;1.90;;;;;;;;;;5050319;28;20017;-75
2021/09/26 13:23:34;;;;;;;5.97;2.13;;;;;;;;;;5050448;28;20417;-75
2021/09/26 13:26:22;;;;;;;4.63;2.30;;;;;;;;;;5050462;28;20093;-75
2021/09/26 13:28:59;;;;;;;4.47;2.13;;;;;;;;;;5049499;28;20051;-76
2021/09/26 13:31:24;;;;;;;5.15;2.45;;;;;;;;;;5038630;28;20465;-77
2021/09/26 13:34:10;;;;;;;5.88;2.58;;;;;;;;;;5049608;28;20064;-75
2021/09/26 13:36:58;;;;;;;4.70;2.53;;;;;;;;;;5048676;28;20462;-75
2021/09/26 13:39:44;;;;;;;4.05;2.28;;;;;;;;;;5050195;28;20056;-76
2021/09/26 13:42:09;;;;;;;7.40;2.33;;;;;;;;;;5049385;28;20025;-75
2021/09/26 13:44:35;;;;;;;7.38;2.95;;;;;;;;;;5048456;28;20031;-76
2021/09/26 13:47:00;;;;;;;4.28;2.28;;;;;;;;;;5048995;28;20092;-75
2021/09/26 13:49:25;;;;;;;3.47;2.40;;;;;;;;;;5048673;28;20028;-77
2021/09/26 13:51:50;;;;;;;4.07;2.40;;;;;;;;;;5048865;28;20598;-74
2021/09/26 13:54:16;;;;;;;8.52;2.20;;;;;;;;;;5050199;28;20524;-74
2021/09/26 13:56:42;;;;;;;5.22;2.47;;;;;;;;;;5050252;28;20029;-74
2021/09/26 13:59:07;;;;;;;4.50;2.13;;;;;;;;;;5049975;28;20477;-75
2021/09/26 14:01:32;;;;;;;6.88;2.33;;;;;;;;;;5049933;28;20024;-75
2021/09/26 14:03:58;;;;;;;5.63;2.20;;;;;;;;;;5050353;28;20044;-75
2021/09/26 14:06:23;;;;;;;3.58;2.00;;;;;;;;;;5050236;28;20028;-76
2021/09/26 14:08:48;;;;;;;4.72;2.15;;;;;;;;;;5048387;28;20481;-75
2021/09/26 14:11:14;;;;;;;3.03;1.60;;;;;;;;;;5049827;28;20028;-78
2021/09/26 14:13:41;;;;;;;4.75;2.38;;;;;;;;;;5053998;28;20037;-75
2021/09/26 14:16:06;;;;;;;6.93;2.67;;;;;;;;;;5054111;28;20033;-75
2021/09/26 14:18:32;;;;;;;7.13;3.13;;;;;;;;;;5053177;28;20027;-75
2021/09/26 14:20:57;;;;;;;7.10;3.28;;;;;;;;;;5053658;28;20033;-74